OIIIOIGG

Guest
Details From OIII - Teheran Mehrabad Intl
To OIGG - Rasht
Flight Number -
Tags Generated
Created
Modified
Stats Distance 128 nm / 237 km
Max Altitude 0 ft / 0 m
Waypoints 2
Social Downloads 8
Likes 0
Share VATSIM

Download

Looking for another format? Having issues loading an existing format? Contact us
Advertisement - Login to hide

Notes

Generated

Route

OIII OIGG

ID Type Via Altitude Latitude Longitude Leg Dist Tot Dist Heading (true) Name
O OIII APT - 0 ft / 0 m 35.69663˚ 51.29216˚ - 0 nm - -
O OIGG APT - 0 ft / 0 m 37.32643˚ 49.58915˚ 127 nm 127 nm 320° / 319° -

Altitude Profile

Advertisement - Login to hide

OIII

Details ICAO OIII (THR)
Name Teheran Mehrabad Intl
Region Iran
Timezone Asia/Tehran (UTC+3.5)
Stats Elevation 3,962 ft / 1,208 m (AMSL)
Location 35.692631° 51.317409°
Runways 3
Magnetic Variation 4.729° E

METAR

OIII 111330Z 27016KT CAVOK 10/M11 Q1017 A3005 NOSIG

Decode

TAF

TAF OIII 111100Z 1112/1218 24004MPS 7000 NSC TEMPO 1112/1118 28008MPS

Decode

Departure Runways

ID Width Length Bearing (true) Bearing (mag) Surface Threshold Offset Overrun Length
09 131 ft / 40 m 1,553 ft / 473 m 88.25° 83.52° Concrete 0 ft / 0 m 160 ft / 49 m
11L 148 ft / 45 m 13,077 ft / 3,986 m 109.70° 104.97° Asphalt 0 ft / 0 m 1,000 ft / 305 m
11R 197 ft / 60 m 13,227 ft / 4,032 m 109.74° 105.01° Asphalt 3,075 ft / 937 m 1,000 ft / 305 m
27 131 ft / 40 m 1,553 ft / 473 m 268.25° 263.52° Concrete 0 ft / 0 m 90 ft / 27 m
29L 197 ft / 60 m 13,227 ft / 4,032 m 289.77° 285.04° Asphalt 0 ft / 0 m 280 ft / 85 m
29R 148 ft / 45 m 13,077 ft / 3,986 m 289.72° 284.99° Asphalt 0 ft / 0 m 400 ft / 122 m

OIGG

Details ICAO OIGG (RAS)
Name RASHT
Region Iran
Timezone Asia/Tehran (UTC+3.5)
Stats Elevation -40 ft / -12 m (AMSL)
Location 37.325546° 49.605571°
Runways 1
Magnetic Variation 5.282° E

METAR

OIGG 111330Z 28004KT 8000 NSC 12/10 Q1022

Decode

TAF

Not found

Destination Runways

ID Width Length Bearing (true) Bearing (mag) Surface Threshold Offset Overrun Length
09 148 ft / 45 m 9,552 ft / 2,911 m 93.84° 88.56° Asphalt 1,973 ft / 601 m 492 ft / 150 m
27 148 ft / 45 m 9,552 ft / 2,911 m 273.86° 268.58° Asphalt 0 ft / 0 m 0 ft / 0 m

Approach Navaids

Runway Type Ident Frequency Range Bearing (true) Bearing (mag) Slope Elevation
27 Localiser IRST 109.90 MHz 18 nm / 33 km 273.83° 268.55° - -40 ft / -12 m (AMSL)
27 Glidescope IRST 109.90 MHz 10 nm / 19 km 273.85° 268.57° 3.00° -40 ft / -12 m (AMSL)
27 DME IRST 109.90 MHz 18 nm / 33 km - - - -40 ft / -12 m (AMSL)

Popular Alternatives